Time;durP1;ratioP1;P1;durP2;ratioP2;P2;SDS_P1;SDS_P2;PMS_P1;PMS_P2;Temp;Humidity;BMP_temperature;BMP_pressure;BME280_temperature;BME280_humidity;BME280_pressure;Samples;Min_cycle;Max_cycle;Signal;HPM_P1;HPM_P2
2022/08/07 00:01:44;;;;;;;1.75;1.40;;;;;;;32.37;26.63;98882.22;5065729;28;20095;-80
2022/08/07 00:04:10;;;;;;;1.92;1.70;;;;;;;32.43;26.46;98875.44;5061959;28;20485;-80
2022/08/07 00:06:37;;;;;;;3.38;1.75;;;;;;;32.32;26.63;98877.16;5054872;28;20029;-80
2022/08/07 00:09:03;;;;;;;1.50;1.40;;;;;;;31.98;26.94;98875.34;5061635;28;20485;-80
2022/08/07 00:11:29;;;;;;;1.95;1.80;;;;;;;31.75;27.43;98870.97;5060951;28;20035;-80
2022/08/07 00:13:56;;;;;;;1.40;1.30;;;;;;;31.97;27.82;98873.78;5068009;28;20032;-80
2022/08/07 00:16:23;;;;;;;1.63;1.52;;;;;;;32.40;26.69;98869.88;5058518;28;20032;-80
2022/08/07 00:18:49;;;;;;;1.80;1.70;;;;;;;32.66;26.69;98874.03;5055429;28;20066;-80
2022/08/07 00:21:15;;;;;;;2.70;1.55;;;;;;;32.86;26.50;98870.72;5054874;28;20103;-80
2022/08/07 00:23:42;;;;;;;1.80;1.50;;;;;;;32.93;26.20;98882.53;5059790;28;20029;-80
2022/08/07 00:26:10;;;;;;;1.73;1.35;;;;;;;33.08;26.23;98877.03;5058119;28;20071;-80
2022/08/07 00:28:37;;;;;;;1.73;1.63;;;;;;;33.26;26.17;98889.16;5062733;28;20052;-80
2022/08/07 00:31:06;;;;;;;1.60;1.50;;;;;;;33.43;25.39;98893.25;5055092;28;20029;-80
2022/08/07 00:33:34;;;;;;;2.50;2.30;;;;;;;33.53;25.37;98888.34;5056637;28;22525;-80
2022/08/07 00:36:00;;;;;;;2.05;1.55;;;;;;;33.48;25.59;98891.00;5055273;28;20116;-80
2022/08/07 00:38:27;;;;;;;1.50;1.40;;;;;;;33.48;25.82;98888.94;5054680;28;20530;-80
2022/08/07 00:40:53;;;;;;;3.00;1.40;;;;;;;33.46;25.57;98887.84;5056565;28;20029;-79
2022/08/07 00:43:19;;;;;;;1.58;1.42;;;;;;;33.59;25.86;98889.25;5052481;28;20727;-80
2022/08/07 00:45:45;;;;;;;2.55;1.55;;;;;;;33.72;25.64;98904.09;5053681;28;20060;-80
2022/08/07 00:48:11;;;;;;;4.35;2.00;;;;;;;33.86;25.44;98899.75;5053829;28;20105;-80
2022/08/07 00:50:39;;;;;;;2.85;1.30;;;;;;;33.59;25.47;98897.78;5060268;28;20607;-80
2022/08/07 00:53:05;;;;;;;3.30;1.52;;;;;;;33.22;26.13;98899.13;5057698;28;20051;-80
2022/08/07 00:55:32;;;;;;;1.38;1.27;;;;;;;32.69;26.68;98896.66;5058263;28;20041;-80
2022/08/07 00:57:58;;;;;;;1.55;1.42;;;;;;;32.47;26.99;98898.00;5058664;28;20020;-80
2022/08/07 01:00:24;;;;;;;1.60;1.50;;;;;;;32.46;27.33;98904.97;5059176;28;20025;-80
2022/08/07 01:02:51;;;;;;;1.45;1.35;;;;;;;32.59;27.16;98897.09;5058981;28;20924;-80
2022/08/07 01:05:18;;;;;;;2.13;1.38;;;;;;;32.67;26.79;98895.53;5059767;28;20040;-80
2022/08/07 01:07:45;;;;;;;2.22;1.70;;;;;;;32.65;26.79;98895.22;5061534;28;20028;-80
2022/08/07 01:10:11;;;;;;;2.05;1.60;;;;;;;32.59;27.08;98897.91;5061917;28;20044;-79
2022/08/07 01:12:39;;;;;;;2.03;1.85;;;;;;;32.46;27.09;98900.06;5058838;28;20044;-80
2022/08/07 01:15:06;;;;;;;1.50;1.20;;;;;;;32.43;27.18;98889.63;5058176;28;20043;-79
2022/08/07 01:17:33;;;;;;;1.48;1.38;;;;;;;32.69;26.88;98887.31;5057545;28;20072;-80
2022/08/07 01:20:09;;;;;;;1.75;1.40;;;;;;;32.83;26.43;98895.22;5060279;28;20537;-79
2022/08/07 01:22:37;;;;;;;1.40;1.30;;;;;;;32.79;27.06;98888.09;5061198;28;20049;-80
2022/08/07 01:25:04;;;;;;;1.30;1.00;;;;;;;33.00;26.28;98898.53;5058852;28;20178;-80
2022/08/07 01:27:31;;;;;;;0.95;0.95;;;;;;;33.26;26.06;98894.84;5060956;28;20052;-80
2022/08/07 01:29:57;;;;;;;1.48;1.30;;;;;;;33.33;26.28;98896.56;5059051;28;20028;-80
2022/08/07 01:32:23;;;;;;;1.70;1.13;;;;;;;33.43;25.60;98893.25;5056061;28;20045;-80
2022/08/07 01:34:50;;;;;;;2.35;1.20;;;;;;;33.49;25.58;98889.75;5058393;28;20451;-80
2022/08/07 01:37:17;;;;;;;2.35;1.52;;;;;;;33.55;25.77;98887.84;5062760;28;20055;-80
2022/08/07 01:39:45;;;;;;;1.10;1.00;;;;;;;33.54;25.57;98884.19;5056423;28;20052;-80
2022/08/07 01:42:16;;;;;;;1.75;1.08;;;;;;;33.58;26.09;98884.84;5057059;28;20029;-80
2022/08/07 01:44:42;;;;;;;;;;;;;;;33.28;26.10;98889.47;5058914;28;20128;-80
2022/08/07 01:47:09;;;;;;;1.30;1.00;;;;;;;33.01;26.57;98881.00;5058970;28;19924;-80
2022/08/07 01:49:36;;;;;;;1.40;1.30;;;;;;;32.91;26.65;98887.91;5056660;28;20358;-80
2022/08/07 01:52:06;;;;;;;1.20;1.10;;;;;;;33.01;26.58;98877.31;5059365;28;20036;-80
2022/08/07 01:54:38;;;;;;;1.20;1.10;;;;;;;33.07;26.33;98884.00;5061124;28;20545;-80
2022/08/07 01:57:11;;;;;;;1.92;1.35;;;;;;;32.86;26.42;98877.16;5059766;28;20085;-80
2022/08/07 01:59:44;;;;;;;1.58;1.10;;;;;;;32.75;26.82;98874.03;5062810;28;20120;-80
2022/08/07 02:02:19;;;;;;;1.20;1.00;;;;;;;33.01;26.81;98872.47;5059238;28;20068;-80
2022/08/07 02:04:57;;;;;;;1.38;1.10;;;;;;;32.77;26.76;98874.34;5064057;28;20067;-80
2022/08/07 02:07:27;;;;;;;1.20;1.00;;;;;;;32.42;27.24;98868.16;5061282;28;20036;-79
2022/08/07 02:09:54;;;;;;;;;;;;;;;32.34;27.63;98880.31;5058613;28;20104;-80
2022/08/07 02:12:23;;;;;;;1.10;1.10;;;;;;;32.88;26.83;98879.56;5067369;28;19916;-80
2022/08/07 02:14:55;;;;;;;1.35;1.00;;;;;;;33.16;26.29;98881.13;5071625;28;20476;-80
2022/08/07 02:17:23;;;;;;;1.05;1.02;;;;;;;33.36;26.36;98875.69;5064698;28;20047;-80
2022/08/07 02:19:51;;;;;;;1.10;1.00;;;;;;;33.44;26.18;98876.94;5064127;28;20373;-80
2022/08/07 02:22:20;;;;;;;1.23;1.00;;;;;;;33.34;25.90;98875.38;5059587;28;20128;-80
2022/08/07 02:24:49;;;;;;;1.33;1.20;;;;;;;33.10;26.38;98875.28;5057560;28;20103;-80
2022/08/07 02:27:19;;;;;;;1.40;1.20;;;;;;;33.00;26.55;98884.28;5056840;28;20040;-80
2022/08/07 02:29:47;;;;;;;2.72;1.23;;;;;;;33.15;26.21;98879.53;5056117;28;20025;-79
2022/08/07 02:32:15;;;;;;;0.98;0.90;;;;;;;33.01;26.47;98878.16;5055243;28;20055;-79
2022/08/07 02:34:43;;;;;;;1.05;0.95;;;;;;;33.08;26.89;98885.56;5054145;28;20041;-80
2022/08/07 02:37:11;;;;;;;1.48;1.00;;;;;;;33.34;25.90;98883.94;5055038;28;20037;-80
2022/08/07 02:39:41;;;;;;;1.10;1.00;;;;;;;33.55;25.75;98880.09;5058835;28;20040;-80
2022/08/07 02:42:08;;;;;;;1.23;1.00;;;;;;;33.78;25.33;98882.22;5061745;28;20051;-80
2022/08/07 02:44:35;;;;;;;1.02;1.00;;;;;;;33.58;25.68;98876.28;5068497;28;20074;-80
2022/08/07 02:47:04;;;;;;;0.80;0.80;;;;;;;33.18;26.26;98885.09;5076353;28;20893;-80
2022/08/07 02:49:30;;;;;;;3.00;0.98;;;;;;;33.08;26.59;98882.72;5062421;28;20085;-80
2022/08/07 02:51:59;;;;;;;0.90;0.90;;;;;;;33.22;26.27;98885.69;5055584;28;20033;-80
2022/08/07 02:54:29;;;;;;;1.00;1.00;;;;;;;33.37;25.55;98883.75;5059829;28;20369;-80
2022/08/07 02:57:00;;;;;;;1.20;1.10;;;;;;;33.44;25.64;98889.09;5062654;28;20044;-80
2022/08/07 02:59:27;;;;;;;;;;;;;;;33.45;25.60;98887.06;5061180;28;20029;-79
2022/08/07 03:01:55;;;;;;;1.33;1.23;;;;;;;33.71;25.47;98891.09;5054427;28;20390;-80
2022/08/07 03:04:22;;;;;;;1.00;0.90;;;;;;;33.79;25.36;98892.34;5056641;28;20041;-80
2022/08/07 03:06:50;;;;;;;0.98;0.95;;;;;;;33.70;25.30;98883.06;5059592;28;20519;-80
2022/08/07 03:09:18;;;;;;;2.05;0.88;;;;;;;33.58;25.63;98892.59;5064829;28;20499;-80
2022/08/07 03:11:45;;;;;;;2.10;1.00;;;;;;;33.07;26.07;98889.69;5062673;28;20032;-79
2022/08/07 03:14:12;;;;;;;1.15;0.90;;;;;;;32.73;26.57;98890.78;5063187;28;20123;-80
2022/08/07 03:16:39;;;;;;;0.90;0.90;;;;;;;32.76;26.54;98887.00;5056430;28;20045;-79
2022/08/07 03:19:06;;;;;;;1.92;0.90;;;;;;;32.93;26.54;98891.06;5060459;28;20035;-80
2022/08/07 03:21:32;;;;;;;0.80;0.80;;;;;;;33.13;26.35;98891.41;5061399;28;20040;-80
2022/08/07 03:23:59;;;;;;;1.00;0.82;;;;;;;33.27;26.14;98889.94;5060317;28;20037;-80
2022/08/07 03:26:29;;;;;;;1.50;0.82;;;;;;;32.90;26.43;98892.03;5057172;28;20033;-80
2022/08/07 03:28:57;;;;;;;1.30;0.98;;;;;;;32.72;26.62;98883.53;5058647;28;20095;-79
2022/08/07 03:31:25;;;;;;;0.70;0.70;;;;;;;33.09;25.98;98893.66;5057105;28;20033;-80
2022/08/07 03:33:56;;;;;;;1.15;0.93;;;;;;;33.38;25.79;98893.09;5065155;28;20034;-80
2022/08/07 03:36:25;;;;;;;3.17;1.15;;;;;;;33.57;25.49;98880.41;5059244;28;20441;-80
2022/08/07 03:38:56;;;;;;;0.98;0.80;;;;;;;33.28;26.22;98886.63;5068013;28;20105;-80
2022/08/07 03:41:22;;;;;;;0.70;0.70;;;;;;;32.98;26.55;98890.44;5059660;28;20033;-80
2022/08/07 03:43:49;;;;;;;0.82;0.80;;;;;;;33.04;26.37;98894.28;5058205;28;20041;-80
2022/08/07 03:46:15;;;;;;;1.13;0.90;;;;;;;32.93;26.62;98893.91;5055392;28;20075;-80
2022/08/07 03:48:42;;;;;;;0.88;0.88;;;;;;;33.13;25.90;98896.31;5057800;28;20100;-79
2022/08/07 03:51:10;;;;;;;1.10;0.95;;;;;;;33.06;26.23;98894.59;5060602;28;20492;-80
2022/08/07 03:53:38;;;;;;;0.70;0.70;;;;;;;33.13;26.03;98897.09;5054310;28;20115;-80
2022/08/07 03:56:05;;;;;;;1.02;0.93;;;;;;;33.05;26.27;98895.06;5070665;28;20098;-80
2022/08/07 03:58:31;;;;;;;0.80;0.80;;;;;;;32.95;26.47;98896.31;5053928;28;20037;-80
2022/08/07 04:00:59;;;;;;;0.85;0.70;;;;;;;32.61;26.98;98898.22;5058886;28;20033;-80
2022/08/07 04:03:25;;;;;;;0.88;0.70;;;;;;;32.57;27.06;98897.59;5060932;28;20036;-79
2022/08/07 04:05:52;;;;;;;0.70;0.60;;;;;;;32.52;26.89;98905.94;5065110;28;20033;-79
2022/08/07 04:08:18;;;;;;;0.77;0.70;;;;;;;32.75;26.46;98902.47;5057350;28;20039;-79
2022/08/07 04:10:46;;;;;;;1.77;0.73;;;;;;;32.96;25.87;98904.34;5067873;28;20112;-79
2022/08/07 04:13:16;;;;;;;0.98;0.90;;;;;;;32.37;27.35;98902.13;5064104;28;20031;-80
2022/08/07 04:15:43;;;;;;;0.70;0.70;;;;;;;32.32;27.55;98903.53;5054014;28;20025;-80
2022/08/07 04:18:13;;;;;;;1.30;0.90;;;;;;;32.45;27.17;98909.84;5060662;28;20436;-80
2022/08/07 04:20:39;;;;;;;0.93;0.60;;;;;;;32.55;26.94;98902.97;5062395;28;20694;-80
2022/08/07 04:23:06;;;;;;;1.65;1.20;;;;;;;32.53;26.68;98905.47;5059347;28;20500;-80
2022/08/07 04:25:36;;;;;;;1.63;0.80;;;;;;;32.37;27.50;98902.13;5061307;28;20029;-80
2022/08/07 04:28:05;;;;;;;0.70;0.70;;;;;;;32.62;27.59;98907.53;5067609;28;20058;-80
2022/08/07 04:30:32;;;;;;;1.15;0.70;;;;;;;32.22;27.35;98901.13;5052107;28;20037;-80
2022/08/07 04:32:59;;;;;;;0.90;0.68;;;;;;;32.46;27.65;98902.13;5057664;28;20044;-80
2022/08/07 04:35:25;;;;;;;0.50;0.50;;;;;;;32.84;27.00;98913.84;5055371;28;20040;-80
2022/08/07 04:37:51;;;;;;;0.52;0.50;;;;;;;32.81;27.04;98920.50;5060038;28;20024;-80
2022/08/07 04:40:22;;;;;;;0.85;0.57;;;;;;;32.85;28.08;98914.63;5056682;28;20086;-80
2022/08/07 04:42:48;;;;;;;0.50;0.50;;;;;;;32.79;27.20;98916.56;5061296;28;20036;-80
2022/08/07 04:45:14;;;;;;;0.60;0.60;;;;;;;33.03;27.07;98914.66;5053949;28;20033;-80
2022/08/07 04:48:06;;;;;;;0.60;0.60;;;;;;;32.86;27.76;98907.69;5053182;28;20408;-80
2022/08/07 04:50:40;;;;;;;0.80;0.80;;;;;;;32.62;27.82;98922.56;5054261;28;20118;-80
2022/08/07 04:53:29;;;;;;;1.45;0.50;;;;;;;32.55;27.61;98919.22;5057569;28;20030;-80
2022/08/07 04:56:39;;;;;;;0.60;0.55;;;;;;;32.62;27.44;98930.28;5056905;28;20048;-80
2022/08/07 04:59:29;;;;;;;0.57;0.57;;;;;;;32.78;26.98;98944.19;5061836;28;20404;-80
2022/08/07 05:02:21;;;;;;;0.40;0.40;;;;;;;32.41;27.53;98942.53;5054056;28;20053;-81
2022/08/07 05:04:59;;;;;;;1.88;0.57;;;;;;;31.61;28.65;98939.69;5067340;28;20029;-80
2022/08/07 05:07:38;;;;;;;0.55;0.50;;;;;;;31.49;28.82;98942.63;5053143;28;20116;-80
2022/08/07 05:10:20;;;;;;;1.10;0.55;;;;;;;31.73;28.74;98943.69;5058843;28;20029;-80
2022/08/07 05:13:27;;;;;;;0.40;0.40;;;;;;;31.63;28.85;98948.53;5061426;28;20032;-80
2022/08/07 05:15:53;;;;;;;0.50;0.50;;;;;;;31.29;29.78;98948.63;5027238;28;20099;-80
2022/08/07 05:18:29;;;;;;;0.52;0.52;;;;;;;30.31;31.30;98941.56;5060703;28;20194;-80
2022/08/07 05:21:17;;;;;;;0.60;0.60;;;;;;;30.94;29.79;98945.06;5068191;28;20507;-81
2022/08/07 05:24:16;;;;;;;3.80;1.33;;;;;;;31.41;29.44;98940.00;5077162;28;20082;-80
2022/08/07 05:26:43;;;;;;;1.05;0.65;;;;;;;31.78;29.17;98938.22;5033699;28;20052;-80
2022/08/07 05:29:12;;;;;;;1.25;0.80;;;;;;;31.78;29.05;98935.38;5053864;28;20497;-80
2022/08/07 05:31:42;;;;;;;1.85;1.17;;;;;;;31.52;29.17;98951.00;5053596;28;20045;-80
2022/08/07 05:34:14;;;;;;;1.53;0.70;;;;;;;31.78;29.46;98948.78;5057156;28;20043;-80
2022/08/07 05:36:44;;;;;;;1.75;0.70;;;;;;;31.81;29.70;98942.94;5069052;28;20112;-80
2022/08/07 05:39:12;;;;;;;1.13;0.77;;;;;;;31.40;29.88;98946.97;5068533;28;20036;-79
2022/08/07 05:41:40;;;;;;;1.13;0.80;;;;;;;31.25;30.27;98947.97;5069382;28;20028;-79
2022/08/07 05:44:07;;;;;;;0.68;0.65;;;;;;;30.81;31.03;98954.84;5064901;28;20029;-80
2022/08/07 05:46:36;;;;;;;2.30;0.70;;;;;;;30.31;31.76;98953.69;5066652;28;20032;-80
2022/08/07 05:49:06;;;;;;;0.80;0.80;;;;;;;30.46;31.47;98956.84;5068231;28;20032;-80
2022/08/07 05:51:32;;;;;;;1.33;0.90;;;;;;;31.36;30.35;98951.19;5066416;28;20431;-81
2022/08/07 05:53:59;;;;;;;1.17;0.90;;;;;;;31.48;30.37;98946.72;5067475;28;20029;-80
2022/08/07 05:56:27;;;;;;;0.70;0.70;;;;;;;31.33;29.83;98954.94;5065596;28;20037;-80
2022/08/07 05:58:54;;;;;;;0.82;0.80;;;;;;;31.41;29.81;98954.22;5065314;28;20452;-80
2022/08/07 06:01:23;;;;;;;1.42;1.00;;;;;;;31.53;30.32;98955.41;5065048;28;20066;-80
2022/08/07 06:03:55;;;;;;;1.42;1.02;;;;;;;30.40;32.46;98956.66;5064433;28;20052;-80
2022/08/07 06:06:23;;;;;;;0.93;0.93;;;;;;;30.06;32.17;98950.88;5061999;28;20041;-80
2022/08/07 06:08:49;;;;;;;1.38;1.17;;;;;;;29.60;32.83;98954.34;5065446;28;20433;-80
2022/08/07 06:11:16;;;;;;;2.75;1.42;;;;;;;29.02;33.46;98965.72;5061407;28;20064;-80
2022/08/07 06:13:42;;;;;;;1.73;1.30;;;;;;;28.70;34.11;98951.69;5058469;28;20059;-80
2022/08/07 06:16:09;;;;;;;1.20;1.10;;;;;;;28.39;34.91;98951.25;5059191;28;20040;-79
2022/08/07 06:18:36;;;;;;;1.52;1.30;;;;;;;28.92;33.62;98955.50;5064846;28;20021;-80
2022/08/07 06:21:03;;;;;;;3.03;1.42;;;;;;;27.59;36.39;98953.97;5064909;28;20054;-81
2022/08/07 06:23:31;;;;;;;2.72;1.50;;;;;;;28.56;34.26;98955.66;5069464;28;20093;-80
2022/08/07 06:25:58;;;;;;;5.03;2.20;;;;;;;27.24;36.64;98955.50;5065417;28;20044;-80
2022/08/07 06:28:24;;;;;;;1.45;1.35;;;;;;;28.63;33.97;98949.06;5064690;28;20032;-80
2022/08/07 06:30:51;;;;;;;7.35;2.05;;;;;;;29.13;33.41;98954.09;5063932;28;20387;-81
2022/08/07 06:33:19;;;;;;;2.58;1.98;;;;;;;29.36;32.90;98957.47;5058652;28;20583;-81
2022/08/07 06:35:45;;;;;;;2.45;1.75;;;;;;;28.93;33.87;98959.13;5060870;28;20040;-80
2022/08/07 06:38:11;;;;;;;1.98;1.77;;;;;;;28.60;34.59;98956.38;5066708;28;20052;-80
2022/08/07 06:40:44;;;;;;;1.77;1.67;;;;;;;29.60;33.14;98955.16;5070324;28;20033;-81
2022/08/07 06:43:12;;;;;;;2.78;1.88;;;;;;;30.48;31.79;98966.50;5064353;28;20031;-81
2022/08/07 06:45:38;;;;;;;1.67;1.48;;;;;;;30.62;31.36;98957.50;5061443;28;20036;-81
2022/08/07 06:48:05;;;;;;;2.38;2.05;;;;;;;29.57;32.63;98958.88;5066946;28;20074;-81
2022/08/07 06:50:35;;;;;;;2.20;2.00;;;;;;;28.81;33.96;98963.50;5062658;28;20036;-80
2022/08/07 06:53:03;;;;;;;2.78;2.03;;;;;;;29.66;32.70;98966.72;5056915;28;20035;-81
2022/08/07 06:55:32;;;;;;;2.28;1.95;;;;;;;29.23;33.63;98970.81;5061178;28;20509;-81
2022/08/07 06:58:01;;;;;;;2.50;2.30;;;;;;;29.47;33.52;98970.53;5064634;28;20390;-81
2022/08/07 07:00:32;;;;;;;5.38;2.20;;;;;;;29.60;33.14;98965.66;5058074;28;20086;-81
2022/08/07 07:02:59;;;;;;;2.60;2.00;;;;;;;28.27;35.45;98968.09;5062591;28;20059;-81
2022/08/07 07:05:25;;;;;;;2.22;1.70;;;;;;;28.80;34.42;98970.38;5058487;28;20401;-81
2022/08/07 07:07:51;;;;;;;1.90;1.70;;;;;;;29.24;33.83;98966.72;5059265;28;20044;-81
2022/08/07 07:10:32;;;;;;;1.85;1.52;;;;;;;29.16;33.51;98962.50;5065457;28;20058;-82
2022/08/07 07:13:05;;;;;;;;;;;;;;;30.02;31.09;98958.69;5057276;28;20079;-82
2022/08/07 07:15:38;;;;;;;1.98;1.50;;;;;;;30.39;31.09;98966.41;5059674;28;20350;-81
2022/08/07 07:18:14;;;;;;;2.95;1.52;;;;;;;30.35;30.71;98960.06;5064488;28;20075;-89
2022/08/07 07:20:56;;;;;;;1.60;1.10;;;;;;;29.84;31.06;98956.44;5063910;28;20029;-91
2022/08/07 07:23:24;;;;;;;1.60;1.10;;;;;;;30.38;30.85;98950.66;5063903;28;20044;-86
2022/08/07 07:25:55;;;;;;;1.20;1.10;;;;;;;29.96;30.77;98955.66;5064990;28;20064;-85
2022/08/07 07:28:26;;;;;;;3.03;1.38;;;;;;;30.29;30.89;98961.06;5065462;28;20427;-86
2022/08/07 07:31:02;;;;;;;1.30;1.20;;;;;;;30.22;30.36;98958.47;5064464;28;20025;-84
2022/08/07 07:33:32;;;;;;;2.13;1.17;;;;;;;30.18;30.73;98960.63;5067050;28;20056;-86
2022/08/07 07:36:00;;;;;;;1.65;0.95;;;;;;;30.82;29.91;98962.09;5069254;28;20098;-90
2022/08/07 07:38:27;;;;;;;0.90;0.90;;;;;;;30.29;30.59;98963.91;5063503;28;20370;-91
2022/08/07 07:41:00;;;;;;;1.70;1.02;;;;;;;29.10;32.18;98961.44;5059139;28;20078;-90
2022/08/07 07:43:30;;;;;;;0.95;0.95;;;;;;;29.13;32.60;98966.22;5058750;28;20456;-89
2022/08/07 07:45:59;;;;;;;1.33;0.90;;;;;;;30.88;30.90;98961.06;5073826;28;20090;-87
2022/08/07 07:48:26;;;;;;;0.98;0.90;;;;;;;31.47;28.84;98970.69;5057397;28;20132;-89
2022/08/07 07:50:54;;;;;;;2.25;0.80;;;;;;;31.47;29.33;98962.16;5058313;28;20037;-87
2022/08/07 07:53:23;;;;;;;1.30;0.80;;;;;;;31.97;28.26;98968.28;5063441;28;20076;-87
2022/08/07 07:55:51;;;;;;;0.70;0.70;;;;;;;31.17;28.58;98975.03;5064541;28;20160;-88
2022/08/07 07:58:20;;;;;;;0.88;0.77;;;;;;;32.15;27.64;98963.94;5057347;28;20493;-87
2022/08/07 08:00:47;;;;;;;0.60;0.60;;;;;;;31.02;29.10;98977.56;5059732;28;20028;-88
2022/08/07 08:03:15;;;;;;;2.15;0.80;;;;;;;30.20;30.14;98973.06;5061444;28;20504;-86
2022/08/07 08:05:43;;;;;;;0.60;0.60;;;;;;;31.18;28.40;98976.63;5055194;28;20503;-87
2022/08/07 08:08:11;;;;;;;2.22;0.70;;;;;;;32.14;27.89;98973.75;5060928;28;20431;-87
2022/08/07 08:10:39;;;;;;;5.65;0.60;;;;;;;31.06;28.45;98977.47;5057841;28;20038;-86
2022/08/07 08:13:07;;;;;;;1.42;0.90;;;;;;;29.39;31.72;98976.41;5056334;28;20125;-86
2022/08/07 08:15:37;;;;;;;0.60;0.60;;;;;;;29.02;31.56;98979.06;5062908;28;20028;-82
2022/08/07 08:18:07;;;;;;;2.07;0.77;;;;;;;29.34;30.28;98970.47;5059798;28;20029;-79
2022/08/07 08:28:17;;;;;;;0.88;0.50;;;;;;;30.73;28.34;98977.78;5103324;28;20051;-80
2022/08/07 08:30:46;;;;;;;0.70;0.65;;;;;;;30.02;28.91;98981.34;5099465;28;20066;-79
2022/08/07 08:33:17;;;;;;;0.43;0.43;;;;;;;31.00;27.53;98973.63;5102633;28;20039;-79
2022/08/07 08:35:48;;;;;;;2.10;0.43;;;;;;;30.88;27.99;98974.44;5102222;28;20038;-83
2022/08/07 08:38:19;;;;;;;0.60;0.50;;;;;;;31.74;27.37;98979.38;5103784;28;20027;-81
2022/08/07 08:40:53;;;;;;;9.98;0.63;;;;;;;31.65;27.87;98974.41;5099163;28;20121;-80
2022/08/07 08:43:30;;;;;;;1.80;0.60;;;;;;;30.41;29.38;98983.72;5099134;28;20114;-81
2022/08/07 08:46:04;;;;;;;0.70;0.60;;;;;;;29.82;30.40;98978.75;5100805;28;20020;-79
2022/08/07 08:49:01;;;;;;;1.50;0.70;;;;;;;29.18;30.53;98982.66;5097190;28;20036;-80
2022/08/07 08:51:37;;;;;;;0.70;0.70;;;;;;;29.74;29.68;98965.22;5102972;28;20508;-79
2022/08/07 08:54:15;;;;;;;0.85;0.50;;;;;;;31.32;29.44;98976.84;5100069;28;20035;-79
2022/08/07 08:56:46;;;;;;;1.52;0.70;;;;;;;32.15;27.69;98969.63;5102270;28;20107;-79
2022/08/07 08:59:39;;;;;;;0.47;0.47;;;;;;;32.05;27.40;98966.75;5100241;28;20024;-80
2022/08/07 09:02:33;;;;;;;0.85;0.57;;;;;;;31.50;27.09;98978.28;5101272;28;20101;-80
2022/08/07 09:05:07;;;;;;;0.80;0.80;;;;;;;30.95;27.11;98979.91;5102135;28;20061;-81
2022/08/07 09:08:12;;;;;;;1.60;0.60;;;;;;;29.92;28.43;98985.34;5102594;28;20031;-79
2022/08/07 09:11:00;;;;;;;2.60;0.95;;;;;;;30.33;29.47;98984.44;5103684;28;20508;-81
2022/08/07 09:13:48;;;;;;;0.93;0.60;;;;;;;29.73;29.25;98972.16;5104629;28;20667;-80
2022/08/07 09:16:29;;;;;;;0.70;0.60;;;;;;;29.05;29.45;98975.34;5102395;28;20032;-79
2022/08/07 09:19:33;;;;;;;2.60;0.60;;;;;;;29.55;27.97;98967.03;5101486;28;20488;-79
2022/08/07 09:22:24;;;;;;;1.65;0.85;;;;;;;29.37;29.28;98958.28;5101152;28;20427;-79
2022/08/07 09:25:18;;;;;;;0.73;0.60;;;;;;;29.89;28.57;98964.38;5102027;28;20507;-79
2022/08/07 09:27:53;;;;;;;1.15;0.50;;;;;;;29.82;27.78;98958.16;5103527;28;20035;-78
2022/08/07 09:30:21;;;;;;;1.17;0.68;;;;;;;29.45;29.34;98953.22;5102172;28;20034;-80
2022/08/07 09:33:12;;;;;;;0.85;0.45;;;;;;;28.98;28.42;98950.09;5095080;28;20554;-78
2022/08/07 09:35:53;;;;;;;0.88;0.50;;;;;;;29.14;28.75;98956.50;5091359;28;20040;-79
2022/08/07 09:38:48;;;;;;;0.95;0.50;;;;;;;30.56;27.08;98956.50;5080276;28;20129;-78
2022/08/07 09:41:20;;;;;;;1.10;0.60;;;;;;;29.78;28.85;98949.75;5070165;28;20048;-78
2022/08/07 09:43:55;;;;;;;1.25;0.60;;;;;;;30.67;27.78;98951.25;5087284;28;20039;-78
2022/08/07 09:46:55;;;;;;;1.83;0.65;;;;;;;30.50;26.52;98951.88;5084101;28;20028;-78
2022/08/07 09:49:41;;;;;;;5.95;0.90;;;;;;;31.58;25.29;98949.13;5084105;28;20079;-79
2022/08/07 09:52:33;;;;;;;5.60;0.50;;;;;;;31.21;25.28;98945.25;5093097;28;20036;-79
2022/08/07 09:55:28;;;;;;;1.52;0.50;;;;;;;32.39;26.44;98936.53;5080131;28;20067;-79
2022/08/07 09:58:42;;;;;;;0.85;0.40;;;;;;;32.76;25.14;98929.66;5085130;28;20024;-79
2022/08/07 10:01:51;;;;;;;0.40;0.40;;;;;;;32.57;24.11;98936.59;5070310;28;20131;-79
2022/08/07 10:04:40;;;;;;;1.17;0.40;;;;;;;32.76;25.48;98938.19;5082432;28;20047;-79
2022/08/07 10:07:57;;;;;;;0.82;0.32;;;;;;;33.29;24.11;98933.75;5083081;28;20028;-79
2022/08/07 10:10:39;;;;;;;2.47;0.50;;;;;;;33.20;24.03;98930.13;5022046;28;20033;-78
2022/08/07 10:13:21;;;;;;;1.75;0.55;;;;;;;33.19;24.21;98928.53;5086160;28;20394;-78
2022/08/07 10:16:20;;;;;;;1.95;0.40;;;;;;;33.77;24.59;98920.50;5086430;28;20040;-78
2022/08/07 10:19:02;;;;;;;1.05;0.10;;;;;;;33.87;24.61;98912.72;5084543;28;20090;-78
2022/08/07 10:21:51;;;;;;;1.05;0.30;;;;;;;32.51;24.74;98924.28;5086723;28;20399;-78
2022/08/07 10:24:24;;;;;;;1.75;0.50;;;;;;;31.91;25.97;98919.00;5082085;28;20119;-79
2022/08/07 10:27:16;;;;;;;1.25;0.50;;;;;;;31.85;26.43;98915.19;5086523;28;20040;-79
2022/08/07 10:29:58;;;;;;;0.40;0.40;;;;;;;33.17;24.37;98906.25;5083937;28;20070;-78
2022/08/07 10:32:24;;;;;;;0.70;0.30;;;;;;;33.89;24.07;98915.88;5083321;28;20086;-79
2022/08/07 10:35:11;;;;;;;0.70;0.40;;;;;;;34.75;24.28;98903.34;5086101;28;20055;-79
2022/08/07 10:37:49;;;;;;;0.20;0.20;;;;;;;33.72;24.30;98906.16;5084722;28;20078;-79
2022/08/07 10:40:24;;;;;;;1.27;0.25;;;;;;;34.13;23.10;98904.53;5082165;28;20044;-78
2022/08/07 10:43:18;;;;;;;0.40;0.30;;;;;;;33.96;22.48;98892.72;5078687;28;21835;-79
2022/08/07 10:45:48;;;;;;;0.70;0.40;;;;;;;32.00;25.33;98890.66;5077384;28;20120;-79
2022/08/07 10:48:43;;;;;;;0.45;0.40;;;;;;;31.45;25.04;98894.50;5082189;28;20044;-79
2022/08/07 10:51:19;;;;;;;0.50;0.38;;;;;;;31.83;26.45;98889.31;5078646;28;20101;-79
2022/08/07 10:54:09;;;;;;;2.85;0.30;;;;;;;32.79;24.31;98885.25;5090894;28;20111;-79
2022/08/07 10:56:56;;;;;;;0.52;0.52;;;;;;;32.97;23.09;98888.88;5081036;28;20032;-79
2022/08/07 10:59:40;;;;;;;1.10;0.30;;;;;;;32.80;25.12;98883.97;5082702;28;20046;-79
2022/08/07 11:02:30;;;;;;;0.68;0.40;;;;;;;31.93;25.19;98885.22;5083564;28;20032;-80
2022/08/07 11:05:21;;;;;;;0.85;0.50;;;;;;;31.66;24.86;98876.63;5079258;28;20118;-78
2022/08/07 11:08:09;;;;;;;2.83;0.30;;;;;;;32.79;22.92;98862.50;5076027;28;20032;-79
2022/08/07 11:11:02;;;;;;;0.60;0.30;;;;;;;34.00;22.02;98864.84;5079382;28;20036;-79
2022/08/07 11:13:52;;;;;;;1.05;0.40;;;;;;;32.65;23.38;98867.53;5082026;28;20043;-80
2022/08/07 11:16:39;;;;;;;0.22;0.20;;;;;;;32.77;24.80;98862.19;5080862;28;20036;-79
2022/08/07 11:19:23;;;;;;;0.32;0.32;;;;;;;31.90;25.79;98868.34;5082611;28;20028;-79
2022/08/07 11:22:07;;;;;;;1.23;0.30;;;;;;;32.04;25.16;98862.88;5079312;28;20113;-78
2022/08/07 11:24:45;;;;;;;0.45;0.40;;;;;;;33.62;24.27;98859.03;5081617;28;20052;-79
2022/08/07 11:27:36;;;;;;;1.40;0.30;;;;;;;34.33;23.17;98862.75;5080145;28;20040;-79
2022/08/07 11:30:05;;;;;;;0.73;0.45;;;;;;;34.10;22.75;98860.69;5079870;28;20035;-79
2022/08/07 11:32:53;;;;;;;1.08;0.38;;;;;;;33.29;21.71;98859.75;5083743;28;20040;-78
2022/08/07 11:35:23;;;;;;;4.38;0.30;;;;;;;33.65;23.61;98860.91;5079417;28;20044;-78
2022/08/07 11:38:00;;;;;;;0.57;0.30;;;;;;;33.18;23.57;98855.81;5084320;28;20032;-79
2022/08/07 11:40:35;;;;;;;0.32;0.20;;;;;;;34.70;23.34;98855.50;5081285;28;20037;-79
2022/08/07 11:43:21;;;;;;;1.50;0.28;;;;;;;34.64;22.24;98848.13;5084247;28;20028;-79
2022/08/07 11:46:28;;;;;;;0.93;0.32;;;;;;;32.85;23.47;98849.22;5080512;28;20035;-78
2022/08/07 11:49:16;;;;;;;0.15;0.10;;;;;;;32.81;23.63;98846.53;5070804;28;20044;-80
2022/08/07 11:51:50;;;;;;;0.93;0.50;;;;;;;31.10;25.95;98848.41;5079470;28;20162;-78
2022/08/07 11:54:35;;;;;;;0.45;0.40;;;;;;;31.74;24.67;98848.72;5085611;28;20036;-79
2022/08/07 11:57:22;;;;;;;0.50;0.50;;;;;;;31.77;25.00;98854.25;5081651;28;20391;-79
2022/08/07 11:59:54;;;;;;;0.30;0.30;;;;;;;31.64;25.30;98844.28;5076461;28;20475;-79
2022/08/07 12:02:57;;;;;;;0.47;0.35;;;;;;;30.94;25.59;98850.66;5082003;28;20505;-79
2022/08/07 12:05:36;;;;;;;0.50;0.30;;;;;;;32.24;25.12;98842.56;5076375;28;20044;-79
2022/08/07 12:08:21;;;;;;;0.30;0.30;;;;;;;31.77;25.34;98845.75;5084034;28;20059;-79
2022/08/07 12:11:15;;;;;;;1.00;0.35;;;;;;;32.97;23.81;98842.56;5081878;28;20036;-79
2022/08/07 12:14:18;;;;;;;0.40;0.20;;;;;;;33.59;22.83;98832.28;5085329;28;20086;-79